sensor_id;sensor_type;location;lat;lon;timestamp;P1;durP1;ratioP1;P2;durP2;ratioP2
74162;SDS011;62515;52.758;5.076;2023-04-01T00:01:46;18.13;;;11.32;;
74162;SDS011;62515;52.758;5.076;2023-04-01T00:04:13;18.50;;;12.63;;
74162;SDS011;62515;52.758;5.076;2023-04-01T00:06:40;22.38;;;12.43;;
74162;SDS011;62515;52.758;5.076;2023-04-01T00:09:06;18.98;;;13.32;;
74162;SDS011;62515;52.758;5.076;2023-04-01T00:11:33;19.63;;;13.48;;
74162;SDS011;62515;52.758;5.076;2023-04-01T00:14:01;22.92;;;13.15;;
74162;SDS011;62515;52.758;5.076;2023-04-01T00:16:28;19.02;;;13.25;;
74162;SDS011;62515;52.758;5.076;2023-04-01T00:18:55;18.30;;;13.98;;
74162;SDS011;62515;52.758;5.076;2023-04-01T00:21:22;21.55;;;10.40;;
74162;SDS011;62515;52.758;5.076;2023-04-01T00:23:49;20.08;;;11.52;;
74162;SDS011;62515;52.758;5.076;2023-04-01T00:30:22;15.45;;;10.63;;
74162;SDS011;62515;52.758;5.076;2023-04-01T00:32:51;18.33;;;11.45;;
74162;SDS011;62515;52.758;5.076;2023-04-01T00:35:18;21.33;;;11.65;;
74162;SDS011;62515;52.758;5.076;2023-04-01T00:37:45;16.55;;;11.85;;
74162;SDS011;62515;52.758;5.076;2023-04-01T00:40:22;19.23;;;11.52;;
74162;SDS011;62515;52.758;5.076;2023-04-01T00:42:51;20.55;;;12.75;;
74162;SDS011;62515;52.758;5.076;2023-04-01T00:45:25;18.90;;;12.32;;
74162;SDS011;62515;52.758;5.076;2023-04-01T00:47:55;17.38;;;12.30;;
74162;SDS011;62515;52.758;5.076;2023-04-01T00:50:25;15.00;;;11.88;;
74162;SDS011;62515;52.758;5.076;2023-04-01T00:52:54;17.08;;;12.50;;
74162;SDS011;62515;52.758;5.076;2023-04-01T00:55:21;13.95;;;11.05;;
74162;SDS011;62515;52.758;5.076;2023-04-01T00:57:49;13.10;;;10.57;;
74162;SDS011;62515;52.758;5.076;2023-04-01T01:00:19;13.40;;;11.10;;
74162;SDS011;62515;52.758;5.076;2023-04-01T01:02:48;16.27;;;11.20;;
74162;SDS011;62515;52.758;5.076;2023-04-01T01:05:17;13.85;;;9.68;;
74162;SDS011;62515;52.758;5.076;2023-04-01T01:07:51;16.48;;;10.13;;
74162;SDS011;62515;52.758;5.076;2023-04-01T01:10:29;14.15;;;10.57;;
74162;SDS011;62515;52.758;5.076;2023-04-01T01:13:01;13.52;;;10.85;;
74162;SDS011;62515;52.758;5.076;2023-04-01T01:15:36;16.80;;;11.98;;
74162;SDS011;62515;52.758;5.076;2023-04-01T01:18:09;16.35;;;10.32;;
74162;SDS011;62515;52.758;5.076;2023-04-01T01:24:00;21.42;;;12.77;;
74162;SDS011;62515;52.758;5.076;2023-04-01T01:26:53;21.08;;;13.38;;
74162;SDS011;62515;52.758;5.076;2023-04-01T01:29:31;21.25;;;14.40;;
74162;SDS011;62515;52.758;5.076;2023-04-01T01:32:07;20.17;;;14.70;;
74162;SDS011;62515;52.758;5.076;2023-04-01T01:34:44;22.00;;;13.82;;
74162;SDS011;62515;52.758;5.076;2023-04-01T01:37:20;20.80;;;12.90;;
74162;SDS011;62515;52.758;5.076;2023-04-01T01:39:52;23.48;;;12.70;;
74162;SDS011;62515;52.758;5.076;2023-04-01T01:42:22;27.58;;;14.50;;
74162;SDS011;62515;52.758;5.076;2023-04-01T01:44:52;23.35;;;13.55;;
74162;SDS011;62515;52.758;5.076;2023-04-01T01:47:21;20.60;;;13.32;;
74162;SDS011;62515;52.758;5.076;2023-04-01T01:49:49;21.00;;;13.43;;
74162;SDS011;62515;52.758;5.076;2023-04-01T01:54:48;21.58;;;14.65;;
74162;SDS011;62515;52.758;5.076;2023-04-01T01:57:16;24.92;;;16.30;;
74162;SDS011;62515;52.758;5.076;2023-04-01T01:59:49;26.88;;;16.23;;
74162;SDS011;62515;52.758;5.076;2023-04-01T02:02:23;27.75;;;15.32;;
74162;SDS011;62515;52.758;5.076;2023-04-01T02:04:52;26.45;;;14.10;;
74162;SDS011;62515;52.758;5.076;2023-04-01T02:07:24;24.52;;;14.93;;
74162;SDS011;62515;52.758;5.076;2023-04-01T02:09:54;31.50;;;22.55;;
74162;SDS011;62515;52.758;5.076;2023-04-01T02:12:21;23.17;;;13.50;;
74162;SDS011;62515;52.758;5.076;2023-04-01T02:14:52;25.05;;;16.33;;
74162;SDS011;62515;52.758;5.076;2023-04-01T02:17:21;27.48;;;15.32;;
74162;SDS011;62515;52.758;5.076;2023-04-01T02:19:51;23.02;;;13.25;;
74162;SDS011;62515;52.758;5.076;2023-04-01T02:22:25;18.92;;;13.10;;
74162;SDS011;62515;52.758;5.076;2023-04-01T02:24:54;28.35;;;18.08;;
74162;SDS011;62515;52.758;5.076;2023-04-01T02:27:26;33.42;;;23.05;;
74162;SDS011;62515;52.758;5.076;2023-04-01T02:29:53;27.00;;;14.25;;
74162;SDS011;62515;52.758;5.076;2023-04-01T02:32:20;25.90;;;15.30;;
74162;SDS011;62515;52.758;5.076;2023-04-01T02:34:47;30.17;;;16.48;;
74162;SDS011;62515;52.758;5.076;2023-04-01T02:37:15;25.85;;;14.00;;
74162;SDS011;62515;52.758;5.076;2023-04-01T02:39:44;41.10;;;34.50;;
74162;SDS011;62515;52.758;5.076;2023-04-01T02:42:11;79.20;;;71.65;;
74162;SDS011;62515;52.758;5.076;2023-04-01T02:44:39;46.63;;;41.90;;
74162;SDS011;62515;52.758;5.076;2023-04-01T02:47:06;41.92;;;37.65;;
74162;SDS011;62515;52.758;5.076;2023-04-01T02:49:33;23.45;;;16.90;;
74162;SDS011;62515;52.758;5.076;2023-04-01T02:51:59;32.75;;;27.33;;
74162;SDS011;62515;52.758;5.076;2023-04-01T02:54:26;62.65;;;57.03;;
74162;SDS011;62515;52.758;5.076;2023-04-01T02:56:54;20.08;;;17.50;;
74162;SDS011;62515;52.758;5.076;2023-04-01T02:59:21;38.65;;;35.45;;
74162;SDS011;62515;52.758;5.076;2023-04-01T03:01:48;38.05;;;34.55;;
74162;SDS011;62515;52.758;5.076;2023-04-01T03:04:15;23.52;;;14.15;;
74162;SDS011;62515;52.758;5.076;2023-04-01T03:06:41;24.55;;;16.33;;
74162;SDS011;62515;52.758;5.076;2023-04-01T03:09:09;26.40;;;17.67;;
74162;SDS011;62515;52.758;5.076;2023-04-01T03:11:35;19.13;;;16.45;;
74162;SDS011;62515;52.758;5.076;2023-04-01T03:14:03;22.52;;;18.65;;
74162;SDS011;62515;52.758;5.076;2023-04-01T03:16:30;24.20;;;17.15;;
74162;SDS011;62515;52.758;5.076;2023-04-01T03:18:57;25.08;;;13.20;;
74162;SDS011;62515;52.758;5.076;2023-04-01T03:21:24;36.97;;;33.78;;
74162;SDS011;62515;52.758;5.076;2023-04-01T03:23:52;26.65;;;24.33;;
74162;SDS011;62515;52.758;5.076;2023-04-01T03:26:19;23.42;;;17.42;;
74162;SDS011;62515;52.758;5.076;2023-04-01T03:28:47;26.30;;;19.05;;
74162;SDS011;62515;52.758;5.076;2023-04-01T03:31:15;30.25;;;26.80;;
74162;SDS011;62515;52.758;5.076;2023-04-01T03:33:48;22.85;;;12.77;;
74162;SDS011;62515;52.758;5.076;2023-04-01T03:36:15;21.58;;;17.98;;
74162;SDS011;62515;52.758;5.076;2023-04-01T03:38:42;28.25;;;22.65;;
74162;SDS011;62515;52.758;5.076;2023-04-01T03:43:39;21.23;;;14.07;;
74162;SDS011;62515;52.758;5.076;2023-04-01T03:46:06;22.33;;;14.02;;
74162;SDS011;62515;52.758;5.076;2023-04-01T03:48:34;23.65;;;17.52;;
74162;SDS011;62515;52.758;5.076;2023-04-01T03:51:01;22.27;;;16.13;;
74162;SDS011;62515;52.758;5.076;2023-04-01T03:53:29;24.92;;;15.80;;
74162;SDS011;62515;52.758;5.076;2023-04-01T03:56:03;22.40;;;14.52;;
74162;SDS011;62515;52.758;5.076;2023-04-01T03:58:31;26.20;;;23.08;;
74162;SDS011;62515;52.758;5.076;2023-04-01T04:00:59;21.52;;;14.02;;
74162;SDS011;62515;52.758;5.076;2023-04-01T04:03:26;35.33;;;31.60;;
74162;SDS011;62515;52.758;5.076;2023-04-01T04:05:55;21.05;;;18.83;;
74162;SDS011;62515;52.758;5.076;2023-04-01T04:08:22;23.48;;;16.27;;
74162;SDS011;62515;52.758;5.076;2023-04-01T04:10:54;24.92;;;20.08;;
74162;SDS011;62515;52.758;5.076;2023-04-01T04:13:21;25.10;;;16.95;;
74162;SDS011;62515;52.758;5.076;2023-04-01T04:15:57;27.00;;;22.90;;
74162;SDS011;62515;52.758;5.076;2023-04-01T04:18:24;23.55;;;14.77;;
74162;SDS011;62515;52.758;5.076;2023-04-01T04:20:51;20.17;;;13.30;;
74162;SDS011;62515;52.758;5.076;2023-04-01T04:23:20;27.25;;;19.77;;
74162;SDS011;62515;52.758;5.076;2023-04-01T04:25:53;28.63;;;23.30;;
74162;SDS011;62515;52.758;5.076;2023-04-01T04:28:21;30.60;;;20.13;;
74162;SDS011;62515;52.758;5.076;2023-04-01T04:30:48;25.27;;;15.95;;
74162;SDS011;62515;52.758;5.076;2023-04-01T04:33:15;30.67;;;21.75;;
74162;SDS011;62515;52.758;5.076;2023-04-01T04:35:42;32.40;;;21.75;;
74162;SDS011;62515;52.758;5.076;2023-04-01T04:38:09;76.20;;;68.57;;
74162;SDS011;62515;52.758;5.076;2023-04-01T04:40:38;50.33;;;42.05;;
74162;SDS011;62515;52.758;5.076;2023-04-01T04:43:06;30.65;;;16.35;;
74162;SDS011;62515;52.758;5.076;2023-04-01T04:45:33;28.73;;;20.15;;
74162;SDS011;62515;52.758;5.076;2023-04-01T04:48:02;33.92;;;17.92;;
74162;SDS011;62515;52.758;5.076;2023-04-01T04:50:30;48.53;;;40.00;;
74162;SDS011;62515;52.758;5.076;2023-04-01T04:52:57;29.25;;;16.13;;
74162;SDS011;62515;52.758;5.076;2023-04-01T04:55:24;40.10;;;20.38;;
74162;SDS011;62515;52.758;5.076;2023-04-01T04:58:11;38.20;;;23.48;;
74162;SDS011;62515;52.758;5.076;2023-04-01T05:00:41;46.72;;;40.38;;
74162;SDS011;62515;52.758;5.076;2023-04-01T05:03:16;33.75;;;23.63;;
74162;SDS011;62515;52.758;5.076;2023-04-01T05:05:48;32.90;;;19.77;;
74162;SDS011;62515;52.758;5.076;2023-04-01T05:08:15;29.83;;;18.88;;
74162;SDS011;62515;52.758;5.076;2023-04-01T05:10:42;33.95;;;23.17;;
74162;SDS011;62515;52.758;5.076;2023-04-01T05:13:09;28.58;;;15.77;;
74162;SDS011;62515;52.758;5.076;2023-04-01T05:15:37;41.58;;;24.80;;
74162;SDS011;62515;52.758;5.076;2023-04-01T05:18:04;35.27;;;20.20;;
74162;SDS011;62515;52.758;5.076;2023-04-01T05:20:32;65.55;;;58.35;;
74162;SDS011;62515;52.758;5.076;2023-04-01T05:22:59;83.72;;;74.60;;
74162;SDS011;62515;52.758;5.076;2023-04-01T05:25:26;33.75;;;24.05;;
74162;SDS011;62515;52.758;5.076;2023-04-01T05:27:53;33.70;;;22.80;;
74162;SDS011;62515;52.758;5.076;2023-04-01T05:30:20;35.05;;;23.25;;
74162;SDS011;62515;52.758;5.076;2023-04-01T05:33:12;41.78;;;23.95;;
74162;SDS011;62515;52.758;5.076;2023-04-01T05:35:39;42.08;;;24.17;;
74162;SDS011;62515;52.758;5.076;2023-04-01T05:38:07;34.38;;;24.33;;
74162;SDS011;62515;52.758;5.076;2023-04-01T05:40:34;38.88;;;26.70;;
74162;SDS011;62515;52.758;5.076;2023-04-01T05:43:01;35.28;;;22.77;;
74162;SDS011;62515;52.758;5.076;2023-04-01T05:45:28;44.97;;;33.42;;
74162;SDS011;62515;52.758;5.076;2023-04-01T05:48:12;54.25;;;45.50;;
74162;SDS011;62515;52.758;5.076;2023-04-01T05:50:40;35.95;;;21.75;;
74162;SDS011;62515;52.758;5.076;2023-04-01T05:53:08;44.63;;;23.77;;
74162;SDS011;62515;52.758;5.076;2023-04-01T05:55:40;46.53;;;31.27;;
74162;SDS011;62515;52.758;5.076;2023-04-01T05:58:08;42.55;;;24.17;;
74162;SDS011;62515;52.758;5.076;2023-04-01T06:00:37;53.05;;;36.95;;
74162;SDS011;62515;52.758;5.076;2023-04-01T06:03:05;45.72;;;25.40;;
74162;SDS011;62515;52.758;5.076;2023-04-01T06:05:37;43.50;;;22.52;;
74162;SDS011;62515;52.758;5.076;2023-04-01T06:08:08;49.08;;;28.33;;
74162;SDS011;62515;52.758;5.076;2023-04-01T06:10:39;42.50;;;24.48;;
74162;SDS011;62515;52.758;5.076;2023-04-01T06:13:18;46.35;;;24.25;;
74162;SDS011;62515;52.758;5.076;2023-04-01T06:15:55;44.00;;;24.92;;
74162;SDS011;62515;52.758;5.076;2023-04-01T06:18:42;47.65;;;24.98;;
74162;SDS011;62515;52.758;5.076;2023-04-01T06:21:27;41.40;;;21.83;;
74162;SDS011;62515;52.758;5.076;2023-04-01T06:24:08;62.30;;;53.00;;
74162;SDS011;62515;52.758;5.076;2023-04-01T06:26:49;40.08;;;21.73;;
74162;SDS011;62515;52.758;5.076;2023-04-01T06:29:28;35.83;;;21.98;;
74162;SDS011;62515;52.758;5.076;2023-04-01T06:35:17;47.63;;;38.92;;
74162;SDS011;62515;52.758;5.076;2023-04-01T06:44:06;60.55;;;54.17;;
74162;SDS011;62515;52.758;5.076;2023-04-01T06:47:02;61.47;;;55.08;;
74162;SDS011;62515;52.758;5.076;2023-04-01T06:49:57;40.53;;;32.05;;
74162;SDS011;62515;52.758;5.076;2023-04-01T06:52:51;35.05;;;18.88;;
74162;SDS011;62515;52.758;5.076;2023-04-01T06:55:52;38.80;;;25.05;;
74162;SDS011;62515;52.758;5.076;2023-04-01T06:58:37;43.53;;;37.25;;
74162;SDS011;62515;52.758;5.076;2023-04-01T07:01:09;34.88;;;25.20;;
74162;SDS011;62515;52.758;5.076;2023-04-01T07:03:41;30.50;;;16.98;;
74162;SDS011;62515;52.758;5.076;2023-04-01T07:06:12;28.30;;;16.48;;
74162;SDS011;62515;52.758;5.076;2023-04-01T07:11:24;29.05;;;17.85;;
74162;SDS011;62515;52.758;5.076;2023-04-01T07:14:13;34.88;;;20.95;;
74162;SDS011;62515;52.758;5.076;2023-04-01T07:16:47;37.00;;;29.42;;
74162;SDS011;62515;52.758;5.076;2023-04-01T07:19:18;33.63;;;22.35;;
74162;SDS011;62515;52.758;5.076;2023-04-01T07:22:00;82.20;;;73.90;;
74162;SDS011;62515;52.758;5.076;2023-04-01T07:24:52;73.97;;;65.93;;
74162;SDS011;62515;52.758;5.076;2023-04-01T07:30:16;51.78;;;45.45;;
74162;SDS011;62515;52.758;5.076;2023-04-01T07:32:47;44.33;;;23.30;;
74162;SDS011;62515;52.758;5.076;2023-04-01T07:35:36;35.67;;;19.55;;
74162;SDS011;62515;52.758;5.076;2023-04-01T07:38:45;30.88;;;18.15;;
74162;SDS011;62515;52.758;5.076;2023-04-01T07:42:09;31.85;;;17.60;;
74162;SDS011;62515;52.758;5.076;2023-04-01T07:48:30;55.58;;;49.67;;
74162;SDS011;62515;52.758;5.076;2023-04-01T07:51:17;31.13;;;15.70;;
74162;SDS011;62515;52.758;5.076;2023-04-01T07:53:56;38.03;;;18.05;;
74162;SDS011;62515;52.758;5.076;2023-04-01T07:56:32;33.75;;;25.55;;
74162;SDS011;62515;52.758;5.076;2023-04-01T07:59:08;49.05;;;36.83;;
74162;SDS011;62515;52.758;5.076;2023-04-01T08:01:58;30.20;;;15.82;;
74162;SDS011;62515;52.758;5.076;2023-04-01T08:04:39;30.85;;;23.75;;
74162;SDS011;62515;52.758;5.076;2023-04-01T08:07:18;35.67;;;28.98;;
74162;SDS011;62515;52.758;5.076;2023-04-01T08:10:20;31.27;;;25.05;;
74162;SDS011;62515;52.758;5.076;2023-04-01T08:13:14;24.85;;;17.27;;
74162;SDS011;62515;52.758;5.076;2023-04-01T08:16:12;28.65;;;17.85;;
74162;SDS011;62515;52.758;5.076;2023-04-01T08:18:52;28.13;;;20.85;;
74162;SDS011;62515;52.758;5.076;2023-04-01T08:21:29;28.50;;;17.17;;
74162;SDS011;62515;52.758;5.076;2023-04-01T08:24:05;105.07;;;95.93;;
74162;SDS011;62515;52.758;5.076;2023-04-01T08:26:47;30.88;;;18.02;;
74162;SDS011;62515;52.758;5.076;2023-04-01T08:29:19;32.25;;;23.60;;
74162;SDS011;62515;52.758;5.076;2023-04-01T08:31:48;29.73;;;16.67;;
74162;SDS011;62515;52.758;5.076;2023-04-01T08:34:22;30.10;;;14.52;;
74162;SDS011;62515;52.758;5.076;2023-04-01T08:36:59;31.20;;;27.98;;
74162;SDS011;62515;52.758;5.076;2023-04-01T08:39:31;30.63;;;19.73;;
74162;SDS011;62515;52.758;5.076;2023-04-01T08:42:06;36.47;;;32.30;;
74162;SDS011;62515;52.758;5.076;2023-04-01T08:45:04;33.42;;;16.02;;
74162;SDS011;62515;52.758;5.076;2023-04-01T08:47:59;31.27;;;25.20;;
74162;SDS011;62515;52.758;5.076;2023-04-01T08:53:48;30.20;;;17.70;;
74162;SDS011;62515;52.758;5.076;2023-04-01T08:56:29;36.13;;;20.25;;
74162;SDS011;62515;52.758;5.076;2023-04-01T08:59:14;28.02;;;16.75;;
74162;SDS011;62515;52.758;5.076;2023-04-01T09:01:58;36.40;;;33.08;;
74162;SDS011;62515;52.758;5.076;2023-04-01T09:04:58;23.70;;;13.55;;
74162;SDS011;62515;52.758;5.076;2023-04-01T09:07:51;22.20;;;13.68;;
74162;SDS011;62515;52.758;5.076;2023-04-01T09:13:56;32.80;;;29.63;;
74162;SDS011;62515;52.758;5.076;2023-04-01T09:17:00;33.58;;;30.38;;
74162;SDS011;62515;52.758;5.076;2023-04-01T09:22:22;21.02;;;13.43;;
74162;SDS011;62515;52.758;5.076;2023-04-01T09:25:23;28.50;;;18.95;;
74162;SDS011;62515;52.758;5.076;2023-04-01T09:28:01;20.92;;;14.68;;
74162;SDS011;62515;52.758;5.076;2023-04-01T09:30:48;25.85;;;19.17;;
74162;SDS011;62515;52.758;5.076;2023-04-01T09:34:13;28.58;;;21.30;;
74162;SDS011;62515;52.758;5.076;2023-04-01T09:37:39;30.55;;;27.45;;
74162;SDS011;62515;52.758;5.076;2023-04-01T09:40:35;20.25;;;14.48;;
74162;SDS011;62515;52.758;5.076;2023-04-01T09:50:27;24.70;;;18.05;;
74162;SDS011;62515;52.758;5.076;2023-04-01T09:53:20;31.08;;;22.02;;
74162;SDS011;62515;52.758;5.076;2023-04-01T09:59:24;26.92;;;16.05;;
74162;SDS011;62515;52.758;5.076;2023-04-01T10:09:39;24.83;;;15.00;;
74162;SDS011;62515;52.758;5.076;2023-04-01T10:12:47;23.05;;;18.42;;
74162;SDS011;62515;52.758;5.076;2023-04-01T10:19:04;31.33;;;28.38;;
74162;SDS011;62515;52.758;5.076;2023-04-01T10:25:05;24.05;;;21.27;;
74162;SDS011;62515;52.758;5.076;2023-04-01T10:28:23;25.58;;;19.85;;
74162;SDS011;62515;52.758;5.076;2023-04-01T11:39:00;45.78;;;42.42;;
74162;SDS011;62515;52.758;5.076;2023-04-01T11:42:15;9.15;;;7.50;;
74162;SDS011;62515;52.758;5.076;2023-04-01T11:45:34;12.27;;;11.02;;
74162;SDS011;62515;52.758;5.076;2023-04-01T11:48:24;11.10;;;10.02;;
74162;SDS011;62515;52.758;5.076;2023-04-01T11:51:25;14.77;;;8.98;;
74162;SDS011;62515;52.758;5.076;2023-04-01T11:55:00;24.50;;;22.38;;
74162;SDS011;62515;52.758;5.076;2023-04-01T12:01:27;33.53;;;30.88;;
74162;SDS011;62515;52.758;5.076;2023-04-01T12:04:54;16.70;;;15.30;;
74162;SDS011;62515;52.758;5.076;2023-04-01T12:07:44;31.50;;;29.08;;
74162;SDS011;62515;52.758;5.076;2023-04-01T12:17:02;25.27;;;22.88;;
74162;SDS011;62515;52.758;5.076;2023-04-01T12:19:54;11.77;;;8.45;;
74162;SDS011;62515;52.758;5.076;2023-04-01T12:23:00;40.75;;;37.38;;
74162;SDS011;62515;52.758;5.076;2023-04-01T12:29:41;16.75;;;15.48;;
74162;SDS011;62515;52.758;5.076;2023-04-01T12:32:24;9.85;;;7.80;;
74162;SDS011;62515;52.758;5.076;2023-04-01T12:35:16;41.03;;;38.03;;
74162;SDS011;62515;52.758;5.076;2023-04-01T12:41:13;8.75;;;7.95;;
74162;SDS011;62515;52.758;5.076;2023-04-01T12:53:52;10.15;;;9.07;;
74162;SDS011;62515;52.758;5.076;2023-04-01T12:57:08;9.75;;;8.77;;
74162;SDS011;62515;52.758;5.076;2023-04-01T12:59:51;9.02;;;8.13;;
74162;SDS011;62515;52.758;5.076;2023-04-01T13:02:52;10.80;;;8.98;;
74162;SDS011;62515;52.758;5.076;2023-04-01T13:39:10;25.30;;;23.23;;
74162;SDS011;62515;52.758;5.076;2023-04-01T13:45:38;43.05;;;39.63;;
74162;SDS011;62515;52.758;5.076;2023-04-01T14:09:24;30.90;;;28.55;;
74162;SDS011;62515;52.758;5.076;2023-04-01T14:12:36;8.98;;;8.27;;
74162;SDS011;62515;52.758;5.076;2023-04-01T14:15:42;8.95;;;8.25;;
74162;SDS011;62515;52.758;5.076;2023-04-01T14:18:56;9.38;;;8.55;;
74162;SDS011;62515;52.758;5.076;2023-04-01T14:32:05;9.80;;;9.05;;
74162;SDS011;62515;52.758;5.076;2023-04-01T14:34:56;10.65;;;9.70;;
74162;SDS011;62515;52.758;5.076;2023-04-01T14:37:52;52.95;;;48.85;;
74162;SDS011;62515;52.758;5.076;2023-04-01T14:40:28;27.88;;;25.58;;
74162;SDS011;62515;52.758;5.076;2023-04-01T14:43:22;16.25;;;14.80;;
74162;SDS011;62515;52.758;5.076;2023-04-01T14:46:19;20.35;;;18.63;;
74162;SDS011;62515;52.758;5.076;2023-04-01T14:49:21;34.83;;;32.28;;
74162;SDS011;62515;52.758;5.076;2023-04-01T14:51:50;13.85;;;12.57;;
74162;SDS011;62515;52.758;5.076;2023-04-01T14:54:19;23.75;;;22.00;;
74162;SDS011;62515;52.758;5.076;2023-04-01T14:57:01;9.63;;;8.90;;
74162;SDS011;62515;52.758;5.076;2023-04-01T14:59:39;32.15;;;29.60;;
74162;SDS011;62515;52.758;5.076;2023-04-01T15:02:09;7.35;;;6.53;;
74162;SDS011;62515;52.758;5.076;2023-04-01T15:04:57;8.70;;;8.02;;
74162;SDS011;62515;52.758;5.076;2023-04-01T15:10:39;13.70;;;12.77;;
74162;SDS011;62515;52.758;5.076;2023-04-01T15:16:47;9.88;;;8.98;;
74162;SDS011;62515;52.758;5.076;2023-04-01T15:19:30;13.57;;;11.35;;
74162;SDS011;62515;52.758;5.076;2023-04-01T15:22:18;8.63;;;7.93;;
74162;SDS011;62515;52.758;5.076;2023-04-01T15:25:09;11.93;;;10.95;;
74162;SDS011;62515;52.758;5.076;2023-04-01T15:27:47;11.48;;;10.57;;
74162;SDS011;62515;52.758;5.076;2023-04-01T15:30:21;11.52;;;10.52;;
74162;SDS011;62515;52.758;5.076;2023-04-01T15:33:09;9.85;;;9.05;;
74162;SDS011;62515;52.758;5.076;2023-04-01T15:35:46;37.72;;;34.83;;
74162;SDS011;62515;52.758;5.076;2023-04-01T15:38:27;9.48;;;8.57;;
74162;SDS011;62515;52.758;5.076;2023-04-01T15:41:03;35.65;;;32.90;;
74162;SDS011;62515;52.758;5.076;2023-04-01T15:43:40;22.60;;;20.77;;
74162;SDS011;62515;52.758;5.076;2023-04-01T15:46:13;10.30;;;9.38;;
74162;SDS011;62515;52.758;5.076;2023-04-01T15:48:54;17.40;;;15.88;;
74162;SDS011;62515;52.758;5.076;2023-04-01T15:51:31;21.55;;;19.92;;
74162;SDS011;62515;52.758;5.076;2023-04-01T15:57:15;12.48;;;11.55;;
74162;SDS011;62515;52.758;5.076;2023-04-01T15:59:55;7.65;;;7.05;;
74162;SDS011;62515;52.758;5.076;2023-04-01T16:02:44;14.75;;;13.63;;
74162;SDS011;62515;52.758;5.076;2023-04-01T16:05:25;9.50;;;8.82;;
74162;SDS011;62515;52.758;5.076;2023-04-01T16:44:28;10.90;;;10.10;;
74162;SDS011;62515;52.758;5.076;2023-04-01T16:54:02;16.90;;;15.40;;
74162;SDS011;62515;52.758;5.076;2023-04-01T17:03:51;10.75;;;9.95;;
74162;SDS011;62515;52.758;5.076;2023-04-01T17:06:26;8.52;;;7.72;;
74162;SDS011;62515;52.758;5.076;2023-04-01T17:09:07;8.85;;;8.15;;
74162;SDS011;62515;52.758;5.076;2023-04-01T17:11:49;8.80;;;7.97;;
74162;SDS011;62515;52.758;5.076;2023-04-01T17:14:25;9.02;;;8.27;;
74162;SDS011;62515;52.758;5.076;2023-04-01T17:17:08;10.77;;;9.80;;
74162;SDS011;62515;52.758;5.076;2023-04-01T17:19:52;14.77;;;13.25;;
74162;SDS011;62515;52.758;5.076;2023-04-01T17:22:31;11.20;;;10.10;;
74162;SDS011;62515;52.758;5.076;2023-04-01T17:25:09;9.65;;;8.63;;
74162;SDS011;62515;52.758;5.076;2023-04-01T17:27:46;9.07;;;8.18;;
74162;SDS011;62515;52.758;5.076;2023-04-01T17:33:09;11.52;;;10.52;;
74162;SDS011;62515;52.758;5.076;2023-04-01T17:35:59;11.15;;;10.25;;
74162;SDS011;62515;52.758;5.076;2023-04-01T17:38:47;9.38;;;8.48;;
74162;SDS011;62515;52.758;5.076;2023-04-01T17:41:27;9.65;;;8.45;;
74162;SDS011;62515;52.758;5.076;2023-04-01T17:44:00;14.23;;;8.45;;
74162;SDS011;62515;52.758;5.076;2023-04-01T17:46:36;11.00;;;9.90;;
74162;SDS011;62515;52.758;5.076;2023-04-01T17:49:17;11.60;;;10.50;;
74162;SDS011;62515;52.758;5.076;2023-04-01T17:51:55;17.55;;;15.88;;
74162;SDS011;62515;52.758;5.076;2023-04-01T17:54:32;10.65;;;9.30;;
74162;SDS011;62515;52.758;5.076;2023-04-01T17:57:09;10.48;;;9.60;;
74162;SDS011;62515;52.758;5.076;2023-04-01T17:59:58;13.77;;;12.68;;
74162;SDS011;62515;52.758;5.076;2023-04-01T18:02:38;12.23;;;11.00;;
74162;SDS011;62515;52.758;5.076;2023-04-01T18:05:22;16.65;;;9.50;;
74162;SDS011;62515;52.758;5.076;2023-04-01T18:08:01;10.25;;;9.35;;
74162;SDS011;62515;52.758;5.076;2023-04-01T18:10:40;16.30;;;10.32;;
74162;SDS011;62515;52.758;5.076;2023-04-01T18:13:22;10.35;;;9.18;;
74162;SDS011;62515;52.758;5.076;2023-04-01T18:16:22;13.00;;;11.70;;
74162;SDS011;62515;52.758;5.076;2023-04-01T18:18:59;11.60;;;9.93;;
74162;SDS011;62515;52.758;5.076;2023-04-01T18:21:34;13.57;;;8.55;;
74162;SDS011;62515;52.758;5.076;2023-04-01T18:24:13;10.00;;;8.98;;
74162;SDS011;62515;52.758;5.076;2023-04-01T18:26:46;13.40;;;12.23;;
74162;SDS011;62515;52.758;5.076;2023-04-01T18:29:24;18.38;;;16.60;;
74162;SDS011;62515;52.758;5.076;2023-04-01T18:32:07;13.02;;;11.15;;
74162;SDS011;62515;52.758;5.076;2023-04-01T18:34:43;12.93;;;11.13;;
74162;SDS011;62515;52.758;5.076;2023-04-01T18:37:31;12.80;;;8.68;;
74162;SDS011;62515;52.758;5.076;2023-04-01T18:43:42;11.65;;;10.57;;
74162;SDS011;62515;52.758;5.076;2023-04-01T18:46:16;13.43;;;12.18;;
74162;SDS011;62515;52.758;5.076;2023-04-01T18:48:51;10.45;;;9.45;;
74162;SDS011;62515;52.758;5.076;2023-04-01T18:51:25;9.73;;;8.73;;
74162;SDS011;62515;52.758;5.076;2023-04-01T18:54:01;9.45;;;8.48;;
74162;SDS011;62515;52.758;5.076;2023-04-01T18:56:33;14.80;;;10.27;;
74162;SDS011;62515;52.758;5.076;2023-04-01T18:59:06;12.68;;;10.48;;
74162;SDS011;62515;52.758;5.076;2023-04-01T19:01:39;10.65;;;9.55;;
74162;SDS011;62515;52.758;5.076;2023-04-01T19:04:15;10.65;;;9.50;;
74162;SDS011;62515;52.758;5.076;2023-04-01T19:06:50;12.98;;;9.50;;
74162;SDS011;62515;52.758;5.076;2023-04-01T19:09:19;26.10;;;23.98;;
74162;SDS011;62515;52.758;5.076;2023-04-01T19:11:52;10.52;;;9.52;;
74162;SDS011;62515;52.758;5.076;2023-04-01T19:14:39;29.45;;;26.85;;
74162;SDS011;62515;52.758;5.076;2023-04-01T19:17:19;13.40;;;12.02;;
74162;SDS011;62515;52.758;5.076;2023-04-01T19:19:59;11.07;;;9.57;;
74162;SDS011;62515;52.758;5.076;2023-04-01T19:22:37;14.50;;;12.82;;
74162;SDS011;62515;52.758;5.076;2023-04-01T19:25:15;14.45;;;11.32;;
74162;SDS011;62515;52.758;5.076;2023-04-01T19:27:49;17.05;;;15.50;;
74162;SDS011;62515;52.758;5.076;2023-04-01T19:30:23;15.60;;;12.80;;
74162;SDS011;62515;52.758;5.076;2023-04-01T19:33:00;19.27;;;17.55;;
74162;SDS011;62515;52.758;5.076;2023-04-01T19:35:36;9.73;;;8.27;;
74162;SDS011;62515;52.758;5.076;2023-04-01T19:38:11;12.57;;;10.40;;
74162;SDS011;62515;52.758;5.076;2023-04-01T19:40:45;22.85;;;20.95;;
74162;SDS011;62515;52.758;5.076;2023-04-01T19:43:25;12.88;;;10.48;;
74162;SDS011;62515;52.758;5.076;2023-04-01T19:46:06;15.75;;;14.35;;
74162;SDS011;62515;52.758;5.076;2023-04-01T19:48:44;16.77;;;11.27;;
74162;SDS011;62515;52.758;5.076;2023-04-01T19:51:23;13.38;;;10.30;;
74162;SDS011;62515;52.758;5.076;2023-04-01T19:53:58;14.10;;;12.75;;
74162;SDS011;62515;52.758;5.076;2023-04-01T19:56:35;16.30;;;14.93;;
74162;SDS011;62515;52.758;5.076;2023-04-01T19:59:11;19.52;;;17.65;;
74162;SDS011;62515;52.758;5.076;2023-04-01T20:01:48;11.35;;;10.25;;
74162;SDS011;62515;52.758;5.076;2023-04-01T20:04:20;15.35;;;12.65;;
74162;SDS011;62515;52.758;5.076;2023-04-01T20:06:54;17.05;;;15.40;;
74162;SDS011;62515;52.758;5.076;2023-04-01T20:12:26;9.93;;;8.93;;
74162;SDS011;62515;52.758;5.076;2023-04-01T20:15:19;13.98;;;9.07;;
74162;SDS011;62515;52.758;5.076;2023-04-01T20:17:50;10.27;;;9.23;;
74162;SDS011;62515;52.758;5.076;2023-04-01T20:20:20;11.45;;;10.32;;
74162;SDS011;62515;52.758;5.076;2023-04-01T20:22:55;14.57;;;9.63;;
74162;SDS011;62515;52.758;5.076;2023-04-01T20:25:32;11.00;;;9.10;;
74162;SDS011;62515;52.758;5.076;2023-04-01T20:28:09;14.80;;;13.45;;